createdAt,value
2016-09-15T00:00:40.186Z,1005.04
2016-09-15T00:01:20.726Z,1005.02
2016-09-15T00:02:01.271Z,1005.09
2016-09-15T00:02:41.820Z,1005.08
2016-09-15T00:03:22.366Z,1005.06
2016-09-15T00:04:02.909Z,1005.06
2016-09-15T00:04:43.454Z,1005.06
2016-09-15T00:05:24.007Z,1005.06
2016-09-15T00:06:04.557Z,1005.01
2016-09-15T00:06:45.104Z,1004.99
2016-09-15T00:07:25.652Z,1004.98
2016-09-15T00:08:06.198Z,1004.94
2016-09-15T00:08:46.744Z,1004.95
2016-09-15T00:09:27.292Z,1004.96
2016-09-15T00:10:07.841Z,1004.98
2016-09-15T00:10:48.385Z,1004.96
2016-09-15T00:11:28.934Z,1004.94
2016-09-15T00:12:09.482Z,1005.01
2016-09-15T00:12:50.026Z,1004.95
2016-09-15T00:13:30.583Z,1004.99
2016-09-15T00:14:11.120Z,1005.01
2016-09-15T00:14:51.665Z,1004.95
2016-09-15T00:15:32.204Z,1004.95
2016-09-15T00:16:12.755Z,1004.96
2016-09-15T00:16:53.297Z,1004.93
2016-09-15T00:17:33.851Z,1004.93
2016-09-15T00:18:14.394Z,1004.99
2016-09-15T00:18:54.931Z,1005.02
2016-09-15T00:19:35.481Z,1004.95
2016-09-15T00:20:16.031Z,1004.97
2016-09-15T00:20:56.581Z,1004.99
2016-09-15T00:21:37.128Z,1004.99
2016-09-15T00:22:17.676Z,1005.03
2016-09-15T00:22:58.231Z,1005.02
2016-09-15T00:23:38.779Z,1004.96
2016-09-15T00:24:19.336Z,1005
2016-09-15T00:24:59.883Z,1004.96
2016-09-15T00:25:40.438Z,1004.98
2016-09-15T00:26:20.983Z,1005
2016-09-15T00:27:01.535Z,1005
2016-09-15T00:27:42.089Z,1005.01
2016-09-15T00:28:22.637Z,1005.03
2016-09-15T00:29:03.191Z,1005.02
2016-09-15T00:29:43.737Z,1005.02
2016-09-15T00:30:24.287Z,1004.96
2016-09-15T00:31:04.835Z,1004.99
2016-09-15T00:31:45.377Z,1004.97
2016-09-15T00:32:25.918Z,1004.96
2016-09-15T00:33:06.468Z,1004.97
2016-09-15T00:33:47.010Z,1004.96
2016-09-15T00:34:27.540Z,1004.97
2016-09-15T00:35:08.081Z,1004.95
2016-09-15T00:35:48.618Z,1004.89
2016-09-15T00:36:29.164Z,1004.95
2016-09-15T00:37:09.706Z,1004.93
2016-09-15T00:37:50.251Z,1004.89
2016-09-15T00:38:30.798Z,1004.95
2016-09-15T00:39:11.350Z,1004.87
2016-09-15T00:39:51.887Z,1004.94
2016-09-15T00:40:32.439Z,1004.86
2016-09-15T00:41:12.982Z,1004.9
2016-09-15T00:41:53.531Z,1004.89
2016-09-15T00:42:34.079Z,1004.84
2016-09-15T00:43:14.619Z,1004.8
2016-09-15T00:43:55.160Z,1004.79
2016-09-15T00:44:35.704Z,1004.8
2016-09-15T00:45:16.268Z,1004.86
2016-09-15T00:45:56.819Z,1004.85
2016-09-15T00:46:37.344Z,1004.83
2016-09-15T00:47:17.884Z,1004.81
2016-09-15T00:47:58.429Z,1004.77
2016-09-15T00:48:38.983Z,1004.81
2016-09-15T00:49:19.529Z,1004.81
2016-09-15T00:50:00.077Z,1004.8
2016-09-15T00:50:40.630Z,1004.79
2016-09-15T00:51:21.185Z,1004.8
2016-09-15T00:52:01.731Z,1004.74
2016-09-15T00:52:42.283Z,1004.79
2016-09-15T00:53:22.832Z,1004.79
2016-09-15T00:54:03.376Z,1004.73
2016-09-15T00:54:43.925Z,1004.77
2016-09-15T00:55:24.476Z,1004.74
2016-09-15T00:56:05.018Z,1004.75
2016-09-15T00:56:45.568Z,1004.71
2016-09-15T00:57:26.117Z,1004.6
2016-09-15T00:58:06.656Z,1004.76
2016-09-15T00:58:47.201Z,1004.7
2016-09-15T00:59:27.748Z,1004.74
2016-09-15T01:00:08.297Z,1004.77
2016-09-15T01:00:48.846Z,1004.71
2016-09-15T01:01:29.391Z,1004.76
2016-09-15T01:02:09.932Z,1004.7
2016-09-15T01:02:50.471Z,1004.71
2016-09-15T01:03:31.010Z,1004.72
2016-09-15T01:04:11.562Z,1004.68
2016-09-15T01:04:52.107Z,1004.72
2016-09-15T01:05:32.637Z,1004.66
2016-09-15T01:06:13.185Z,1004.72
2016-09-15T01:06:53.734Z,1004.72
2016-09-15T01:07:34.283Z,1004.67
2016-09-15T01:08:14.809Z,1004.71
2016-09-15T01:08:55.346Z,1004.66
2016-09-15T01:09:35.879Z,1004.7
2016-09-15T01:10:16.422Z,1004.6
2016-09-15T01:10:56.955Z,1004.68
2016-09-15T01:11:37.503Z,1004.69
2016-09-15T01:12:18.062Z,1004.69
2016-09-15T01:12:58.611Z,1004.68
2016-09-15T01:13:39.155Z,1004.66
2016-09-15T01:14:19.708Z,1004.69
2016-09-15T01:15:00.255Z,1004.7
2016-09-15T01:15:40.811Z,1004.67
2016-09-15T01:16:21.358Z,1004.71
2016-09-15T01:17:01.902Z,1004.64
2016-09-15T01:17:42.449Z,1004.68
2016-09-15T01:18:22.994Z,1004.71
2016-09-15T01:19:03.548Z,1004.64
2016-09-15T01:19:44.101Z,1004.67
2016-09-15T01:20:24.651Z,1004.63
2016-09-15T01:21:05.199Z,1004.66
2016-09-15T01:21:45.751Z,1004.6
2016-09-15T01:22:26.300Z,1004.61
2016-09-15T01:23:06.851Z,1004.67
2016-09-15T01:23:47.387Z,1004.61
2016-09-15T01:24:27.938Z,1004.62
2016-09-15T01:25:08.491Z,1004.65
2016-09-15T01:25:49.037Z,1004.65
2016-09-15T01:26:29.583Z,1004.6
2016-09-15T01:27:10.132Z,1004.62
2016-09-15T01:27:50.678Z,1004.67
2016-09-15T01:28:31.229Z,1004.65
2016-09-15T01:29:11.785Z,1004.62
2016-09-15T01:29:52.334Z,1004.6
2016-09-15T01:30:32.887Z,1004.6
2016-09-15T01:31:13.436Z,1004.57
2016-09-15T01:31:53.977Z,1004.63
2016-09-15T01:32:34.531Z,1004.57
2016-09-15T01:33:15.073Z,1004.56
2016-09-15T01:33:55.614Z,1004.62
2016-09-15T01:34:36.154Z,1004.59
2016-09-15T01:35:16.702Z,1004.58
2016-09-15T01:35:57.237Z,1004.59
2016-09-15T01:36:37.782Z,1004.63
2016-09-15T01:37:18.328Z,1004.61
2016-09-15T01:37:58.878Z,1004.61
2016-09-15T01:38:39.424Z,1004.61
2016-09-15T01:39:19.984Z,1004.57
2016-09-15T01:40:00.516Z,1004.6
2016-09-15T01:40:41.066Z,1004.64
2016-09-15T01:41:21.604Z,1004.62
2016-09-15T01:42:02.148Z,1004.61
2016-09-15T01:42:42.698Z,1004.59
2016-09-15T01:43:23.247Z,1004.6
2016-09-15T01:44:03.791Z,1004.59
2016-09-15T01:44:44.336Z,1004.55
2016-09-15T01:45:24.866Z,1004.57
2016-09-15T01:46:05.414Z,1004.53
2016-09-15T01:46:45.963Z,1004.52
2016-09-15T01:47:26.504Z,1004.58
2016-09-15T01:48:07.045Z,1004.53
2016-09-15T01:48:47.597Z,1004.52
2016-09-15T01:49:28.150Z,1004.53
2016-09-15T01:50:08.700Z,1004.49
2016-09-15T01:50:49.263Z,1004.48
2016-09-15T01:51:29.792Z,1004.57
2016-09-15T01:52:10.333Z,1004.49
2016-09-15T01:52:50.883Z,1004.5
2016-09-15T01:53:31.450Z,1004.51
2016-09-15T01:54:11.985Z,1004.51
2016-09-15T01:54:52.535Z,1004.5
2016-09-15T01:55:33.075Z,1004.51
2016-09-15T01:56:13.612Z,1004.5
2016-09-15T01:56:54.161Z,1004.51
2016-09-15T01:57:34.707Z,1004.51
2016-09-15T01:58:15.240Z,1004.51
2016-09-15T01:58:55.779Z,1004.52
2016-09-15T01:59:36.320Z,1004.49
2016-09-15T02:00:16.867Z,1004.52
2016-09-15T02:00:57.414Z,1004.52
2016-09-15T02:01:37.960Z,1004.5
2016-09-15T02:02:18.510Z,1004.51
2016-09-15T02:02:59.051Z,1004.55
2016-09-15T02:03:39.601Z,1004.53
2016-09-15T02:04:20.165Z,1004.52
2016-09-15T02:05:00.713Z,1004.57
2016-09-15T02:05:41.270Z,1004.56
2016-09-15T02:06:21.808Z,1004.56
2016-09-15T02:07:02.354Z,1004.57
2016-09-15T02:07:42.906Z,1004.59
2016-09-15T02:08:23.457Z,1004.57
2016-09-15T02:09:04.011Z,1004.56
2016-09-15T02:09:44.539Z,1004.58
2016-09-15T02:10:25.081Z,1004.58
2016-09-15T02:11:05.635Z,1004.63
2016-09-15T02:11:46.185Z,1004.61
2016-09-15T02:12:26.722Z,1004.65
2016-09-15T02:13:07.264Z,1004.6
2016-09-15T02:13:47.795Z,1004.57
2016-09-15T02:14:28.337Z,1004.58
2016-09-15T02:15:08.886Z,1004.56
2016-09-15T02:15:49.448Z,1004.6
2016-09-15T02:16:29.969Z,1004.58
2016-09-15T02:17:10.512Z,1004.56
2016-09-15T02:17:51.061Z,1004.53
2016-09-15T02:18:31.615Z,1004.55
2016-09-15T02:19:12.160Z,1004.53
2016-09-15T02:19:52.713Z,1004.52
2016-09-15T02:20:33.262Z,1004.56
2016-09-15T02:21:13.811Z,1004.51
2016-09-15T02:21:54.365Z,1004.49
2016-09-15T02:22:34.915Z,1004.51
2016-09-15T02:23:15.456Z,1004.54
2016-09-15T02:23:56.005Z,1004.56
2016-09-15T02:24:36.541Z,1004.58
2016-09-15T02:25:17.099Z,1004.59
2016-09-15T02:25:57.646Z,1004.57
2016-09-15T02:26:38.195Z,1004.58
2016-09-15T02:27:18.740Z,1004.56
2016-09-15T02:27:59.289Z,1004.56
2016-09-15T02:28:39.840Z,1004.56
2016-09-15T02:29:20.389Z,1004.54
2016-09-15T02:30:00.924Z,1004.56
2016-09-15T02:30:41.477Z,1004.53
2016-09-15T02:31:22.019Z,1004.52
2016-09-15T02:32:02.558Z,1004.52
2016-09-15T02:32:43.101Z,1004.5
2016-09-15T02:33:23.652Z,1004.51
2016-09-15T02:34:04.196Z,1004.44
2016-09-15T02:34:44.747Z,1004.45
2016-09-15T02:35:25.303Z,1004.47
2016-09-15T02:36:05.846Z,1004.43
2016-09-15T02:36:46.387Z,1004.46
2016-09-15T02:37:26.940Z,1004.43
2016-09-15T02:38:07.479Z,1004.45
2016-09-15T02:38:48.031Z,1004.47
2016-09-15T02:39:28.577Z,1004.45
2016-09-15T02:40:09.120Z,1004.45
2016-09-15T02:40:49.671Z,1004.44
2016-09-15T02:41:30.216Z,1004.47
2016-09-15T02:42:10.767Z,1004.43
2016-09-15T02:42:51.309Z,1004.41
2016-09-15T02:43:31.855Z,1004.44
2016-09-15T02:44:12.381Z,1004.39
2016-09-15T02:44:52.929Z,1004.43
2016-09-15T02:45:33.478Z,1004.44
2016-09-15T02:46:14.020Z,1004.45
2016-09-15T02:46:54.567Z,1004.42
2016-09-15T02:47:35.115Z,1004.44
2016-09-15T02:48:15.661Z,1004.47
2016-09-15T02:48:56.215Z,1004.46
2016-09-15T02:49:36.763Z,1004.47
2016-09-15T02:50:17.316Z,1004.46
2016-09-15T02:50:57.860Z,1004.44
2016-09-15T02:51:38.407Z,1004.43
2016-09-15T02:52:18.953Z,1004.46
2016-09-15T02:52:59.503Z,1004.45
2016-09-15T02:53:40.051Z,1004.46
2016-09-15T02:54:20.602Z,1004.43
2016-09-15T02:55:01.151Z,1004.43
2016-09-15T02:55:41.704Z,1004.43
2016-09-15T02:56:22.254Z,1004.42
2016-09-15T02:57:02.803Z,1004.41
2016-09-15T02:57:43.360Z,1004.44
2016-09-15T02:58:23.908Z,1004.42
2016-09-15T02:59:04.439Z,1004.43
2016-09-15T02:59:44.984Z,1004.42
2016-09-15T03:00:25.533Z,1004.44
2016-09-15T03:01:06.083Z,1004.44
2016-09-15T03:01:46.635Z,1004.42
2016-09-15T03:02:27.184Z,1004.4
2016-09-15T03:03:07.710Z,1004.39
2016-09-15T03:03:48.252Z,1004.4
2016-09-15T03:04:28.798Z,1004.42
2016-09-15T03:05:09.341Z,1004.4
2016-09-15T03:05:49.892Z,1004.37
2016-09-15T03:06:30.434Z,1004.38
2016-09-15T03:07:10.984Z,1004.37
2016-09-15T03:07:51.539Z,1004.34
2016-09-15T03:08:32.086Z,1004.35
2016-09-15T03:09:12.628Z,1004.33
2016-09-15T03:09:53.175Z,1004.38
2016-09-15T03:10:33.723Z,1004.32
2016-09-15T03:11:14.259Z,1004.35
2016-09-15T03:11:54.796Z,1004.37
2016-09-15T03:12:35.345Z,1004.32
2016-09-15T03:13:15.896Z,1004.38
2016-09-15T03:13:56.447Z,1004.38
2016-09-15T03:14:36.983Z,1004.36
2016-09-15T03:15:17.543Z,1004.33
2016-09-15T03:15:58.073Z,1004.31
2016-09-15T03:16:38.616Z,1004.32
2016-09-15T03:17:19.163Z,1004.34
2016-09-15T03:17:59.719Z,1004.27
2016-09-15T03:18:40.268Z,1004.24
2016-09-15T03:19:20.810Z,1004.25
2016-09-15T03:20:01.352Z,1004.25
2016-09-15T03:20:41.898Z,1004.25
2016-09-15T03:21:22.441Z,1004.26
2016-09-15T03:22:02.980Z,1004.26
2016-09-15T03:22:43.530Z,1004.28
2016-09-15T03:23:24.075Z,1004.22
2016-09-15T03:24:04.618Z,1004.26
2016-09-15T03:24:45.172Z,1004.24
2016-09-15T03:25:25.713Z,1004.23
2016-09-15T03:26:06.266Z,1004.24
2016-09-15T03:26:46.815Z,1004.27
2016-09-15T03:27:27.362Z,1004.29
2016-09-15T03:28:07.906Z,1004.26
2016-09-15T03:28:48.436Z,1004.26
2016-09-15T03:29:28.978Z,1004.29
2016-09-15T03:30:09.529Z,1004.27
2016-09-15T03:30:50.080Z,1004.25
2016-09-15T03:31:30.633Z,1004.33
2016-09-15T03:32:11.170Z,1004.29
2016-09-15T03:32:51.711Z,1004.27
2016-09-15T03:33:32.268Z,1004.31
2016-09-15T03:34:12.823Z,1004.3
2016-09-15T03:34:53.360Z,1004.3
2016-09-15T03:35:33.904Z,1004.31
2016-09-15T03:36:14.455Z,1004.31
2016-09-15T03:36:55.001Z,1004.3
2016-09-15T03:37:35.550Z,1004.3
2016-09-15T03:38:16.099Z,1004.31
2016-09-15T03:38:56.651Z,1004.28
2016-09-15T03:39:37.200Z,1004.28
2016-09-15T03:40:17.755Z,1004.29
2016-09-15T03:40:58.301Z,1004.23
2016-09-15T03:41:38.832Z,1004.24
2016-09-15T03:42:19.383Z,1004.24
2016-09-15T03:42:59.932Z,1004.24
2016-09-15T03:43:40.480Z,1004.23
2016-09-15T03:44:21.004Z,1004.21
2016-09-15T03:45:01.582Z,1004.18
2016-09-15T03:45:42.113Z,1004.19
2016-09-15T03:46:22.648Z,1004.17
2016-09-15T03:47:03.175Z,1004.16
2016-09-15T03:47:43.727Z,1004.2
2016-09-15T03:48:24.278Z,1004.22
2016-09-15T03:49:04.819Z,1004.18
2016-09-15T03:49:45.374Z,1004.22
2016-09-15T03:50:25.915Z,1004.2
2016-09-15T03:51:06.464Z,1004.19
2016-09-15T03:51:47.038Z,1004.26
2016-09-15T03:52:27.582Z,1004.24
2016-09-15T03:53:08.134Z,1004.25
2016-09-15T03:53:48.675Z,1004.22
2016-09-15T03:54:29.225Z,1004.24
2016-09-15T03:55:09.827Z,1004.27
2016-09-15T03:55:50.366Z,1004.26
2016-09-15T03:56:30.938Z,1004.24
2016-09-15T03:57:11.488Z,1004.21
2016-09-15T03:57:52.029Z,1004.22
2016-09-15T03:58:32.566Z,1004.23
2016-09-15T03:59:13.116Z,1004.22
2016-09-15T03:59:53.664Z,1004.25
2016-09-15T04:00:34.213Z,1004.17
2016-09-15T04:01:14.758Z,1004.23
2016-09-15T04:01:55.309Z,1004.19
2016-09-15T04:02:35.850Z,1004.21
2016-09-15T04:03:16.397Z,1004.18
2016-09-15T04:03:56.949Z,1004.21
2016-09-15T04:04:37.488Z,1004.21
2016-09-15T04:05:18.035Z,1004.21
2016-09-15T04:05:58.620Z,1004.19
2016-09-15T04:06:39.243Z,1004.25
2016-09-15T04:07:19.787Z,1004.23
2016-09-15T04:08:00.355Z,1004.26
2016-09-15T04:08:40.906Z,1004.25
2016-09-15T04:09:21.456Z,1004.24
2016-09-15T04:10:02.011Z,1004.27
2016-09-15T04:10:42.566Z,1004.25
2016-09-15T04:11:23.181Z,1004.23
2016-09-15T04:12:03.729Z,1004.21
2016-09-15T04:12:44.274Z,1004.21
2016-09-15T04:13:24.809Z,1004.21
2016-09-15T04:14:05.351Z,1004.22
2016-09-15T04:14:45.886Z,1004.22
2016-09-15T04:15:26.436Z,1004.22
2016-09-15T04:16:06.979Z,1004.24
2016-09-15T04:16:47.518Z,1004.22
2016-09-15T04:17:28.066Z,1004.2
2016-09-15T04:18:08.602Z,1004.19
2016-09-15T04:18:49.149Z,1004.2
2016-09-15T04:19:29.697Z,1004.19
2016-09-15T04:20:10.249Z,1004.2
2016-09-15T04:20:50.799Z,1004.17
2016-09-15T04:21:31.356Z,1004.21
2016-09-15T04:22:11.893Z,1004.19
2016-09-15T04:22:52.442Z,1004.22
2016-09-15T04:23:32.995Z,1004.26
2016-09-15T04:24:13.544Z,1004.17
2016-09-15T04:24:54.094Z,1004.19
2016-09-15T04:25:34.646Z,1004.21
2016-09-15T04:26:15.196Z,1004.22
2016-09-15T04:26:55.737Z,1004.21
2016-09-15T04:27:36.288Z,1004.2
2016-09-15T04:28:16.839Z,1004.22
2016-09-15T04:28:57.391Z,1004.22
2016-09-15T04:29:37.937Z,1004.21
2016-09-15T04:30:18.482Z,1004.17
2016-09-15T04:30:59.033Z,1004.15
2016-09-15T04:31:39.581Z,1004.15
2016-09-15T04:32:20.163Z,1004.18
2016-09-15T04:33:00.707Z,1004.15
2016-09-15T04:33:42.192Z,1004.14
2016-09-15T04:34:22.745Z,1004.11
2016-09-15T04:35:03.294Z,1004.11
2016-09-15T04:35:43.845Z,1004.09
2016-09-15T04:36:24.397Z,1004.1
2016-09-15T04:37:04.934Z,1004.08
2016-09-15T04:37:45.464Z,1004.08
2016-09-15T04:38:26.033Z,1004.12
2016-09-15T04:39:06.574Z,1004.12
2016-09-15T04:39:47.122Z,1004.12
2016-09-15T04:40:27.672Z,1004.11
2016-09-15T04:41:08.219Z,1004.13
2016-09-15T04:41:48.761Z,1004.15
2016-09-15T04:42:29.289Z,1004.17
2016-09-15T04:43:09.825Z,1004.22
2016-09-15T04:43:50.370Z,1004.23
2016-09-15T04:44:30.935Z,1004.2
2016-09-15T04:45:11.538Z,1004.22
2016-09-15T04:45:52.073Z,1004.21
2016-09-15T04:46:32.623Z,1004.18
2016-09-15T04:47:13.147Z,1004.17
2016-09-15T04:47:53.678Z,1004.16
2016-09-15T04:48:34.228Z,1004.17
2016-09-15T04:49:14.766Z,1004.19
2016-09-15T04:49:55.319Z,1004.19
2016-09-15T04:50:35.866Z,1004.22
2016-09-15T04:51:16.405Z,1004.21
2016-09-15T04:51:56.935Z,1004.2
2016-09-15T04:52:37.485Z,1004.18
2016-09-15T04:53:18.036Z,1004.18
2016-09-15T04:53:58.588Z,1004.18
2016-09-15T04:54:39.130Z,1004.21
2016-09-15T04:55:19.678Z,1004.17
2016-09-15T04:56:00.231Z,1004.18
2016-09-15T04:56:40.771Z,1004.23
2016-09-15T04:57:21.306Z,1004.22
2016-09-15T04:58:01.847Z,1004.25
2016-09-15T04:58:42.466Z,1004.23
2016-09-15T04:59:23.017Z,1004.25
2016-09-15T05:00:03.571Z,1004.27
2016-09-15T05:00:44.119Z,1004.27
2016-09-15T05:01:24.670Z,1004.29
2016-09-15T05:02:05.222Z,1004.27
2016-09-15T05:02:45.775Z,1004.28
2016-09-15T05:03:26.312Z,1004.27
2016-09-15T05:04:06.874Z,1004.3
2016-09-15T05:04:47.423Z,1004.29
2016-09-15T05:05:27.975Z,1004.31
2016-09-15T05:06:08.528Z,1004.29
2016-09-15T05:06:49.079Z,1004.31
2016-09-15T05:07:29.632Z,1004.33
2016-09-15T05:08:10.179Z,1004.31
2016-09-15T05:08:50.733Z,1004.32
2016-09-15T05:09:31.295Z,1004.32
2016-09-15T05:10:11.840Z,1004.35
2016-09-15T05:10:52.377Z,1004.33
2016-09-15T05:11:32.912Z,1004.34
2016-09-15T05:12:13.464Z,1004.36
2016-09-15T05:12:54.012Z,1004.34
2016-09-15T05:13:34.559Z,1004.35
2016-09-15T05:14:15.112Z,1004.33
2016-09-15T05:14:55.663Z,1004.31
2016-09-15T05:15:36.208Z,1004.35
2016-09-15T05:16:16.754Z,1004.38
2016-09-15T05:16:57.303Z,1004.36
2016-09-15T05:17:37.846Z,1004.36
2016-09-15T05:18:18.385Z,1004.37
2016-09-15T05:18:58.915Z,1004.37
2016-09-15T05:19:39.455Z,1004.36
2016-09-15T05:20:19.984Z,1004.38
2016-09-15T05:21:00.533Z,1004.39
2016-09-15T05:21:41.084Z,1004.38
2016-09-15T05:22:21.636Z,1004.38
2016-09-15T05:23:02.179Z,1004.42
2016-09-15T05:23:42.720Z,1004.43
2016-09-15T05:24:23.267Z,1004.42
2016-09-15T05:25:03.806Z,1004.39
2016-09-15T05:25:44.353Z,1004.4
2016-09-15T05:26:24.894Z,1004.42
2016-09-15T05:27:05.429Z,1004.43
2016-09-15T05:27:45.977Z,1004.45
2016-09-15T05:28:26.530Z,1004.45
2016-09-15T05:29:07.071Z,1004.46
2016-09-15T05:29:47.630Z,1004.5
2016-09-15T05:30:28.165Z,1004.48
2016-09-15T05:31:08.726Z,1004.45
2016-09-15T05:31:49.276Z,1004.45
2016-09-15T05:32:29.813Z,1004.47
2016-09-15T05:33:10.361Z,1004.45
2016-09-15T05:33:50.911Z,1004.46
2016-09-15T05:34:31.460Z,1004.47
2016-09-15T05:35:12.008Z,1004.47
2016-09-15T05:35:52.554Z,1004.43
2016-09-15T05:36:33.112Z,1004.47
2016-09-15T05:37:13.634Z,1004.46
2016-09-15T05:37:54.157Z,1004.49
2016-09-15T05:38:34.720Z,1004.43
2016-09-15T05:39:15.257Z,1004.44
2016-09-15T05:39:55.800Z,1004.44
2016-09-15T05:40:36.352Z,1004.46
2016-09-15T05:41:16.899Z,1004.45
2016-09-15T05:41:57.435Z,1004.48
2016-09-15T05:42:37.989Z,1004.47
2016-09-15T05:43:18.526Z,1004.48
2016-09-15T05:43:59.082Z,1004.51
2016-09-15T05:44:39.623Z,1004.46
2016-09-15T05:45:20.172Z,1004.48
2016-09-15T05:46:00.753Z,1004.55
2016-09-15T05:46:41.264Z,1004.5
2016-09-15T05:47:21.814Z,1004.52
2016-09-15T05:48:02.358Z,1004.5
2016-09-15T05:48:42.910Z,1004.5
2016-09-15T05:49:23.451Z,1004.55
2016-09-15T05:50:04.000Z,1004.43
2016-09-15T05:50:44.531Z,1004.5
2016-09-15T05:51:25.098Z,1004.46
2016-09-15T05:52:05.646Z,1004.41
2016-09-15T05:52:46.195Z,1004.44
2016-09-15T05:53:26.737Z,1004.4
2016-09-15T05:54:07.277Z,1004.4
2016-09-15T05:54:47.817Z,1004.42
2016-09-15T05:55:28.353Z,1004.39
2016-09-15T05:56:08.912Z,1004.42
2016-09-15T05:56:49.451Z,1004.4
2016-09-15T05:57:30.012Z,1004.38
2016-09-15T05:58:10.553Z,1004.39
2016-09-15T05:58:51.099Z,1004.42
2016-09-15T05:59:31.640Z,1004.44
2016-09-15T06:00:12.189Z,1004.42
2016-09-15T06:00:52.719Z,1004.42
2016-09-15T06:01:33.268Z,1004.44
2016-09-15T06:02:13.822Z,1004.44
2016-09-15T06:02:54.370Z,1004.44
2016-09-15T06:03:34.918Z,1004.43
2016-09-15T06:04:15.465Z,1004.45
2016-09-15T06:04:56.015Z,1004.45
2016-09-15T06:05:36.562Z,1004.44
2016-09-15T06:06:17.101Z,1004.46
2016-09-15T06:06:57.639Z,1004.46
2016-09-15T06:07:38.184Z,1004.44
2016-09-15T06:08:18.718Z,1004.49
2016-09-15T06:08:59.266Z,1004.47
2016-09-15T06:09:39.821Z,1004.47
2016-09-15T06:10:20.358Z,1004.5
2016-09-15T06:11:00.907Z,1004.51
2016-09-15T06:11:41.453Z,1004.48
2016-09-15T06:12:22.001Z,1004.48
2016-09-15T06:13:02.543Z,1004.51
2016-09-15T06:13:43.095Z,1004.51
2016-09-15T06:14:23.633Z,1004.51
2016-09-15T06:15:04.186Z,1004.51
2016-09-15T06:15:44.731Z,1004.47
2016-09-15T06:16:25.277Z,1004.48
2016-09-15T06:17:05.831Z,1004.48
2016-09-15T06:17:46.374Z,1004.44
2016-09-15T06:18:26.922Z,1004.44
2016-09-15T06:19:07.461Z,1004.43
2016-09-15T06:19:48.010Z,1004.42
2016-09-15T06:20:28.548Z,1004.38
2016-09-15T06:21:09.096Z,1004.41
2016-09-15T06:21:49.636Z,1004.38
2016-09-15T06:22:30.182Z,1004.4
2016-09-15T06:23:10.718Z,1004.38
2016-09-15T06:23:51.265Z,1004.42
2016-09-15T06:24:31.816Z,1004.43
2016-09-15T06:25:12.371Z,1004.45
2016-09-15T06:25:52.916Z,1004.43
2016-09-15T06:26:33.457Z,1004.43
2016-09-15T06:27:14.003Z,1004.43
2016-09-15T06:27:54.548Z,1004.42
2016-09-15T06:28:35.087Z,1004.39
2016-09-15T06:29:15.641Z,1004.39
2016-09-15T06:29:56.193Z,1004.39
2016-09-15T06:30:36.739Z,1004.36
2016-09-15T06:31:17.287Z,1004.35
2016-09-15T06:31:57.836Z,1004.36
2016-09-15T06:32:38.386Z,1004.36
2016-09-15T06:33:18.920Z,1004.38
2016-09-15T06:33:59.457Z,1004.4
2016-09-15T06:34:39.998Z,1004.39
2016-09-15T06:35:20.543Z,1004.42
2016-09-15T06:36:01.086Z,1004.4
2016-09-15T06:36:41.627Z,1004.42
2016-09-15T06:37:22.181Z,1004.39
2016-09-15T06:38:02.727Z,1004.39
2016-09-15T06:38:43.279Z,1004.39
2016-09-15T06:39:23.835Z,1004.37
2016-09-15T06:40:04.379Z,1004.4
2016-09-15T06:40:44.931Z,1004.39
2016-09-15T06:41:25.487Z,1004.4
2016-09-15T06:42:06.034Z,1004.42
2016-09-15T06:42:46.586Z,1004.4
2016-09-15T06:43:27.138Z,1004.36
2016-09-15T06:44:07.683Z,1004.41
2016-09-15T06:44:48.234Z,1004.42
2016-09-15T06:45:28.784Z,1004.43
2016-09-15T06:46:09.327Z,1004.36
2016-09-15T06:46:49.878Z,1004.4
2016-09-15T06:47:30.427Z,1004.36
2016-09-15T06:48:10.981Z,1004.39
2016-09-15T06:48:51.538Z,1004.36
2016-09-15T06:49:32.093Z,1004.36
2016-09-15T06:50:12.631Z,1004.34
2016-09-15T06:50:53.175Z,1004.33
2016-09-15T06:51:33.698Z,1004.33
2016-09-15T06:52:14.254Z,1004.35
2016-09-15T06:52:54.802Z,1004.31
2016-09-15T06:53:35.343Z,1004.31
2016-09-15T06:54:15.885Z,1004.33
2016-09-15T06:54:56.441Z,1004.31
2016-09-15T06:55:36.990Z,1004.3
2016-09-15T06:56:17.534Z,1004.31
2016-09-15T06:56:58.075Z,1004.34
2016-09-15T06:57:38.624Z,1004.32
2016-09-15T06:58:19.167Z,1004.36
2016-09-15T06:58:59.709Z,1004.33
2016-09-15T06:59:40.258Z,1004.36
2016-09-15T07:00:20.807Z,1004.33
2016-09-15T07:01:01.355Z,1004.35
2016-09-15T07:01:41.902Z,1004.34
2016-09-15T07:02:22.456Z,1004.37
2016-09-15T07:03:03.002Z,1004.35
2016-09-15T07:03:43.545Z,1004.38
2016-09-15T07:04:24.086Z,1004.39
2016-09-15T07:05:04.646Z,1004.4
2016-09-15T07:05:45.188Z,1004.42
2016-09-15T07:06:25.736Z,1004.38
2016-09-15T07:07:06.277Z,1004.41
2016-09-15T07:07:46.827Z,1004.38
2016-09-15T07:08:27.376Z,1004.42
2016-09-15T07:09:07.917Z,1004.38
2016-09-15T07:09:48.455Z,1004.37
2016-09-15T07:10:29.001Z,1004.35
2016-09-15T07:11:09.552Z,1004.41
2016-09-15T07:11:50.099Z,1004.36
2016-09-15T07:12:30.638Z,1004.37
2016-09-15T07:13:11.185Z,1004.37
2016-09-15T07:13:51.736Z,1004.41
2016-09-15T07:14:32.286Z,1004.39
2016-09-15T07:15:12.834Z,1004.39
2016-09-15T07:15:53.393Z,1004.4
2016-09-15T07:16:33.939Z,1004.41
2016-09-15T07:17:14.480Z,1004.4
2016-09-15T07:17:55.024Z,1004.43
2016-09-15T07:18:35.572Z,1004.4
2016-09-15T07:19:16.123Z,1004.4
2016-09-15T07:19:56.675Z,1004.43
2016-09-15T07:20:37.225Z,1004.38
2016-09-15T07:21:17.776Z,1004.41
2016-09-15T07:21:58.323Z,1004.42
2016-09-15T07:22:38.874Z,1004.38
2016-09-15T07:23:19.418Z,1004.34
2016-09-15T07:23:59.965Z,1004.32
2016-09-15T07:24:40.517Z,1004.37
2016-09-15T07:25:21.060Z,1004.34
2016-09-15T07:26:01.606Z,1004.35
2016-09-15T07:26:42.159Z,1004.36
2016-09-15T07:27:22.708Z,1004.37
2016-09-15T07:28:03.259Z,1004.38
2016-09-15T07:28:43.811Z,1004.33
2016-09-15T07:29:24.363Z,1004.35
2016-09-15T07:30:04.910Z,1004.34
2016-09-15T07:30:45.460Z,1004.35
2016-09-15T07:31:26.009Z,1004.34
2016-09-15T07:32:06.548Z,1004.32
2016-09-15T07:32:47.079Z,1004.31
2016-09-15T07:33:27.626Z,1004.3
2016-09-15T07:34:08.175Z,1004.27
2016-09-15T07:34:48.729Z,1004.31
2016-09-15T07:35:29.268Z,1004.26
2016-09-15T07:36:09.821Z,1004.27
2016-09-15T07:36:50.369Z,1004.27
2016-09-15T07:37:30.920Z,1004.27
2016-09-15T07:38:11.463Z,1004.27
2016-09-15T07:38:52.021Z,1004.28
2016-09-15T07:39:32.572Z,1004.24
2016-09-15T07:40:13.114Z,1004.26
2016-09-15T07:40:53.664Z,1004.23
2016-09-15T07:41:34.217Z,1004.2
2016-09-15T07:42:14.773Z,1004.19
2016-09-15T07:42:55.312Z,1004.22
2016-09-15T07:43:35.858Z,1004.2
2016-09-15T07:44:16.404Z,1004.17
2016-09-15T07:44:56.953Z,1004.19
2016-09-15T07:45:37.511Z,1004.17
2016-09-15T07:46:18.051Z,1004.19
2016-09-15T07:46:58.589Z,1004.18
2016-09-15T07:47:39.133Z,1004.18
2016-09-15T07:48:19.684Z,1004.22
2016-09-15T07:49:00.230Z,1004.23
2016-09-15T07:49:40.779Z,1004.21
2016-09-15T07:50:21.333Z,1004.19
2016-09-15T07:51:01.883Z,1004.21
2016-09-15T07:51:42.432Z,1004.21
2016-09-15T07:52:22.987Z,1004.22
2016-09-15T07:53:03.536Z,1004.22
2016-09-15T07:53:44.087Z,1004.26
2016-09-15T07:54:24.637Z,1004.21
2016-09-15T07:55:05.172Z,1004.29
2016-09-15T07:55:45.722Z,1004.23
2016-09-15T07:56:26.259Z,1004.22
2016-09-15T07:57:06.806Z,1004.22
2016-09-15T07:57:47.354Z,1004.21
2016-09-15T07:58:27.901Z,1004.27
2016-09-15T07:59:08.448Z,1004.25
2016-09-15T07:59:48.997Z,1004.22
2016-09-15T08:00:29.541Z,1004.28
2016-09-15T08:01:10.091Z,1004.24
2016-09-15T08:01:50.644Z,1004.25
2016-09-15T08:02:31.188Z,1004.24
2016-09-15T08:03:11.731Z,1004.23
2016-09-15T08:03:52.277Z,1004.19
2016-09-15T08:04:32.827Z,1004.16
2016-09-15T08:05:13.378Z,1004.16
2016-09-15T08:05:53.926Z,1004.22
2016-09-15T08:06:34.479Z,1004.2
2016-09-15T08:07:15.029Z,1004.24
2016-09-15T08:07:55.583Z,1004.26
2016-09-15T08:08:36.133Z,1004.19
2016-09-15T08:09:16.672Z,1004.17
2016-09-15T08:09:57.263Z,1004.21
2016-09-15T08:10:37.821Z,1004.21
2016-09-15T08:11:18.357Z,1004.17
2016-09-15T08:11:58.908Z,1004.17
2016-09-15T08:12:39.470Z,1004.19